Time;durP1;ratioP1;P1;durP2;ratioP2;P2;SDS_P1;SDS_P2;PMS_P1;PMS_P2;Temp;Humidity;BMP_temperature;BMP_pressure;BME280_temperature;BME280_humidity;BME280_pressure;Samples;Min_cycle;Max_cycle;Signal;HPM_P1;HPM_P2
2023/01/16 00:00:54;;;;;;;23.98;12.60;;;;;;;;;;4999273;28;20153;-69
2023/01/16 00:03:21;;;;;;;23.98;13.38;;;;;;;;;;4993556;28;20180;-68
2023/01/16 00:05:48;;;;;;;24.92;13.88;;;;;;;;;;4998231;28;20578;-69
2023/01/16 00:08:15;;;;;;;30.33;13.98;;;;;;;;;;4998644;28;20124;-70
2023/01/16 00:10:41;;;;;;;25.17;14.25;;;;;;;;;;5012821;28;20064;-71
2023/01/16 00:13:10;;;;;;;23.15;13.90;;;;;;;;;;4998815;28;20100;-70
2023/01/16 00:15:37;;;;;;;31.33;15.48;;;;;;;;;;4996765;28;20046;-69
2023/01/16 00:18:03;;;;;;;39.28;15.40;;;;;;;;;;4996898;28;20086;-70
2023/01/16 00:20:30;;;;;;;38.13;17.15;;;;;;;;;;4997824;28;20044;-68
2023/01/16 00:22:57;;;;;;;54.45;19.35;;;;;;;;;;5011704;28;20072;-69
2023/01/16 00:25:23;;;;;;;34.83;19.10;;;;;;;;;;5001566;28;20502;-69
2023/01/16 00:27:50;;;;;;;34.50;18.88;;;;;;;;;;5004993;28;20041;-70
2023/01/16 00:30:27;;;;;;;;;;;;;;;;;;;;;
2023/01/16 00:32:53;;;;;;;55.03;19.90;;;;;;;;;;5006787;28;20153;-66
2023/01/16 00:35:20;;;;;;;36.72;17.10;;;;;;;;;;5015264;28;20038;-71
2023/01/16 00:37:47;;;;;;;42.15;21.83;;;;;;;;;;5007492;28;20382;-70
2023/01/16 00:40:13;;;;;;;41.72;21.98;;;;;;;;;;5008931;28;20046;-69
2023/01/16 00:42:40;;;;;;;61.22;23.40;;;;;;;;;;5004937;28;20034;-69
2023/01/16 00:45:07;;;;;;;51.13;23.45;;;;;;;;;;5000066;28;20132;-71
2023/01/16 00:47:34;;;;;;;48.25;22.85;;;;;;;;;;5011658;28;20237;-70
2023/01/16 00:50:00;;;;;;;74.82;25.75;;;;;;;;;;4996489;28;20038;-69
2023/01/16 00:52:27;;;;;;;90.15;28.33;;;;;;;;;;4996328;28;20049;-67
2023/01/16 00:54:54;;;;;;;58.08;25.95;;;;;;;;;;4997917;28;20045;-67
2023/01/16 00:57:20;;;;;;;65.70;26.52;;;;;;;;;;4997294;28;20042;-68
2023/01/16 00:59:47;;;;;;;59.60;26.90;;;;;;;;;;4998447;28;20694;-67
2023/01/16 01:02:14;;;;;;;94.97;28.52;;;;;;;;;;5000447;28;20083;-69
2023/01/16 01:04:41;;;;;;;106.32;29.33;;;;;;;;;;4997704;28;20129;-68
2023/01/16 01:07:07;;;;;;;99.75;30.10;;;;;;;;;;5012563;28;20068;-68
2023/01/16 01:09:34;;;;;;;81.32;29.30;;;;;;;;;;5004141;28;20056;-69
2023/01/16 01:12:01;;;;;;;86.45;31.13;;;;;;;;;;5005171;28;20357;-69
2023/01/16 01:14:28;;;;;;;107.85;28.85;;;;;;;;;;5005769;28;20060;-71
2023/01/16 01:16:54;;;;;;;176.52;35.95;;;;;;;;;;4997754;28;20046;-71
2023/01/16 01:19:21;;;;;;;86.53;32.25;;;;;;;;;;5008472;28;20042;-71
2023/01/16 01:21:48;;;;;;;105.50;32.10;;;;;;;;;;5016768;28;20034;-71
2023/01/16 01:24:17;;;;;;;142.43;33.90;;;;;;;;;;4995892;28;20041;-71
2023/01/16 01:26:44;;;;;;;138.95;36.42;;;;;;;;;;4997643;28;20056;-71
2023/01/16 01:29:10;;;;;;;132.38;33.63;;;;;;;;;;4998144;28;20495;-70
2023/01/16 01:31:37;;;;;;;114.13;34.75;;;;;;;;;;4998035;28;20570;-70
2023/01/16 01:34:06;;;;;;;158.20;36.55;;;;;;;;;;4998674;28;20223;-70
2023/01/16 01:36:33;;;;;;;85.90;33.25;;;;;;;;;;4997304;28;20034;-71
2023/01/16 01:38:59;;;;;;;122.63;34.17;;;;;;;;;;4997700;28;20045;-70
2023/01/16 01:41:26;;;;;;;112.68;36.83;;;;;;;;;;4995950;28;20042;-67
2023/01/16 01:43:54;;;;;;;127.00;35.78;;;;;;;;;;4998453;28;20050;-73
2023/01/16 01:46:30;;;;;;;77.93;35.20;;;;;;;;;;4991758;28;20050;-71
2023/01/16 01:49:03;;;;;;;115.20;36.60;;;;;;;;;;5012896;28;20026;-72
2023/01/16 01:51:32;;;;;;;177.50;40.40;;;;;;;;;;4996975;28;20561;-69
2023/01/16 01:54:01;;;;;;;115.68;38.13;;;;;;;;;;4996523;28;20042;-70
2023/01/16 01:56:31;;;;;;;138.60;35.17;;;;;;;;;;4997423;28;20037;-70
2023/01/16 01:59:00;;;;;;;110.88;36.63;;;;;;;;;;5003748;28;20042;-70
2023/01/16 02:01:27;;;;;;;94.57;36.83;;;;;;;;;;4997234;28;20236;-69
2023/01/16 02:04:05;;;;;;;127.25;35.30;;;;;;;;;;4998303;28;20418;-70
2023/01/16 02:06:36;;;;;;;109.88;35.78;;;;;;;;;;4983769;28;20064;-71
2023/01/16 02:09:03;;;;;;;108.28;36.03;;;;;;;;;;5005186;28;20045;-71
2023/01/16 02:11:42;;;;;;;102.35;35.35;;;;;;;;;;5020060;28;20092;-69
2023/01/16 02:14:21;;;;;;;151.43;35.83;;;;;;;;;;4996042;28;20041;-70
2023/01/16 02:19:42;;;;;;;118.88;36.83;;;;;;;;;;5008640;28;20068;-70
2023/01/16 02:22:15;;;;;;;123.88;35.55;;;;;;;;;;5007780;28;20049;-70
2023/01/16 02:24:51;;;;;;;113.67;37.13;;;;;;;;;;5008191;28;20037;-70
2023/01/16 02:27:20;;;;;;;108.75;37.95;;;;;;;;;;5011507;28;20281;-72
2023/01/16 02:30:05;;;;;;;119.07;38.53;;;;;;;;;;5021721;28;20119;-70
2023/01/16 02:32:41;;;;;;;99.25;38.10;;;;;;;;;;5004916;28;20034;-68
2023/01/16 02:35:15;;;;;;;130.82;39.85;;;;;;;;;;5006698;28;20057;-72
2023/01/16 02:37:48;;;;;;;161.55;39.30;;;;;;;;;;5011680;28;20575;-70
2023/01/16 02:40:25;;;;;;;114.85;36.75;;;;;;;;;;5010680;28;20038;-70
2023/01/16 02:43:13;;;;;;;148.07;40.55;;;;;;;;;;5002945;28;20041;-70
2023/01/16 02:46:06;;;;;;;121.30;39.67;;;;;;;;;;4995377;28;20452;-69
2023/01/16 02:48:38;;;;;;;101.82;36.95;;;;;;;;;;5010799;28;20046;-70
2023/01/16 02:51:20;;;;;;;126.47;38.88;;;;;;;;;;5011359;28;20088;-70
2023/01/16 02:53:50;;;;;;;128.38;40.65;;;;;;;;;;4995691;28;20074;-69
2023/01/16 02:56:20;;;;;;;110.15;39.72;;;;;;;;;;5012037;28;20648;-70
2023/01/16 02:58:47;;;;;;;123.65;38.88;;;;;;;;;;5010039;28;20038;-69
2023/01/16 03:01:14;;;;;;;210.40;43.25;;;;;;;;;;4995007;28;20042;-69
2023/01/16 03:03:47;;;;;;;170.27;42.45;;;;;;;;;;4994855;28;20054;-70
2023/01/16 03:06:32;;;;;;;224.25;39.95;;;;;;;;;;4996626;28;20041;-70
2023/01/16 03:09:34;;;;;;;189.18;41.17;;;;;;;;;;5014366;28;20402;-70
2023/01/16 03:12:01;;;;;;;161.10;39.10;;;;;;;;;;4909826;29;20049;-70
2023/01/16 03:14:44;;;;;;;126.43;36.33;;;;;;;;;;4977631;28;20041;-71
2023/01/16 03:17:18;;;;;;;95.78;28.15;;;;;;;;;;4999687;28;20068;-66
2023/01/16 03:20:03;;;;;;;147.10;38.25;;;;;;;;;;5000268;28;20042;-71
2023/01/16 03:22:53;;;;;;;131.30;35.70;;;;;;;;;;4998057;28;20065;-66
2023/01/16 03:25:22;;;;;;;168.10;36.22;;;;;;;;;;5002979;28;20043;-71
2023/01/16 03:27:52;;;;;;;178.57;37.45;;;;;;;;;;5001120;28;20045;-71
2023/01/16 03:30:32;;;;;;;167.70;36.10;;;;;;;;;;4999481;28;20041;-70
2023/01/16 03:33:05;;;;;;;188.32;39.05;;;;;;;;;;5014904;28;20049;-71
2023/01/16 03:35:38;;;;;;;156.95;38.38;;;;;;;;;;4998767;28;20045;-71
2023/01/16 03:38:11;;;;;;;160.18;38.88;;;;;;;;;;4999267;28;20145;-70
2023/01/16 03:40:41;;;;;;;154.82;39.25;;;;;;;;;;4998339;28;20050;-70
2023/01/16 03:43:08;;;;;;;171.23;40.17;;;;;;;;;;5000318;28;20136;-71
2023/01/16 03:45:38;;;;;;;198.48;41.60;;;;;;;;;;4998168;28;20712;-70
2023/01/16 03:48:08;;;;;;;157.95;38.63;;;;;;;;;;5018591;28;20537;-70
2023/01/16 03:50:35;;;;;;;178.10;41.83;;;;;;;;;;5006613;28;20033;-70
2023/01/16 03:53:05;;;;;;;246.77;45.30;;;;;;;;;;5003933;28;20062;-71
2023/01/16 03:55:36;;;;;;;232.23;50.13;;;;;;;;;;5001600;28;20119;-70
2023/01/16 03:58:09;;;;;;;225.77;43.75;;;;;;;;;;5000743;28;20488;-70
2023/01/16 04:01:05;;;;;;;218.13;47.20;;;;;;;;;;5017130;28;20049;-71
2023/01/16 04:03:43;;;;;;;153.75;44.17;;;;;;;;;;4990782;28;20046;-70
2023/01/16 04:06:42;;;;;;;175.52;46.10;;;;;;;;;;4999889;28;20280;-70
2023/01/16 04:09:11;;;;;;;169.80;45.78;;;;;;;;;;4986661;28;20042;-70
2023/01/16 04:11:39;;;;;;;166.48;44.50;;;;;;;;;;4997758;28;20053;-70
2023/01/16 04:14:06;;;;;;;245.60;47.10;;;;;;;;;;4999707;28;20050;-71
2023/01/16 04:16:34;;;;;;;164.88;43.80;;;;;;;;;;4998112;28;20042;-70
2023/01/16 04:19:01;;;;;;;171.27;46.63;;;;;;;;;;4999699;28;20169;-70
2023/01/16 04:21:31;;;;;;;235.68;48.10;;;;;;;;;;4997971;28;20092;-70
2023/01/16 04:23:59;;;;;;;167.85;47.65;;;;;;;;;;4998667;28;20172;-70
2023/01/16 04:26:26;;;;;;;263.08;53.05;;;;;;;;;;4996773;28;20062;-70
2023/01/16 04:28:54;;;;;;;141.75;47.20;;;;;;;;;;5007809;28;20053;-71
2023/01/16 04:31:24;;;;;;;169.75;48.83;;;;;;;;;;5006974;28;21881;-69
2023/01/16 04:33:51;;;;;;;222.65;51.40;;;;;;;;;;4999158;28;20046;-69
2023/01/16 04:36:18;;;;;;;219.82;50.83;;;;;;;;;;4998676;28;20037;-70
2023/01/16 04:38:44;;;;;;;216.88;52.33;;;;;;;;;;5001222;28;20029;-69
2023/01/16 04:41:11;;;;;;;225.50;52.33;;;;;;;;;;4993241;28;20037;-69
2023/01/16 04:43:38;;;;;;;239.07;52.15;;;;;;;;;;5002353;28;20042;-70
2023/01/16 04:46:04;;;;;;;185.38;50.97;;;;;;;;;;4998702;28;20049;-70
2023/01/16 04:48:31;;;;;;;187.00;50.08;;;;;;;;;;4997447;28;20046;-70
2023/01/16 04:50:58;;;;;;;223.13;50.50;;;;;;;;;;5001366;28;20037;-70
2023/01/16 04:53:24;;;;;;;175.27;49.97;;;;;;;;;;4994473;28;20089;-69
2023/01/16 04:55:51;;;;;;;206.88;51.72;;;;;;;;;;4997457;28;20048;-67
2023/01/16 04:58:17;;;;;;;210.15;53.75;;;;;;;;;;4998212;28;20056;-71
2023/01/16 05:00:44;;;;;;;180.93;50.10;;;;;;;;;;4996700;28;20062;-68
2023/01/16 05:03:11;;;;;;;180.10;51.85;;;;;;;;;;4997862;28;20041;-66
2023/01/16 05:05:39;;;;;;;213.32;51.88;;;;;;;;;;4996799;28;20058;-69
2023/01/16 05:08:18;;;;;;;264.13;51.63;;;;;;;;;;4998136;28;20048;-70
2023/01/16 05:10:45;;;;;;;287.58;59.30;;;;;;;;;;4997590;28;20140;-69
2023/01/16 05:13:12;;;;;;;234.50;55.88;;;;;;;;;;4995780;28;20045;-69
2023/01/16 05:15:38;;;;;;;245.15;55.88;;;;;;;;;;4988536;28;20791;-69
2023/01/16 05:18:05;;;;;;;179.30;52.25;;;;;;;;;;4998889;28;20041;-70
2023/01/16 05:20:32;;;;;;;237.30;52.67;;;;;;;;;;5008347;28;20092;-71
2023/01/16 05:22:58;;;;;;;163.05;51.78;;;;;;;;;;5009538;28;20061;-70
2023/01/16 05:25:25;;;;;;;169.27;52.95;;;;;;;;;;4994091;28;20035;-69
2023/01/16 05:27:52;;;;;;;204.52;50.85;;;;;;;;;;5009988;28;20120;-69
2023/01/16 05:30:19;;;;;;;151.45;48.95;;;;;;;;;;5002923;28;20041;-69
2023/01/16 05:32:45;;;;;;;181.82;51.75;;;;;;;;;;5015508;28;20786;-70
2023/01/16 05:35:12;;;;;;;165.75;46.05;;;;;;;;;;5002579;28;20041;-69
2023/01/16 05:37:38;;;;;;;229.15;48.80;;;;;;;;;;5001764;28;20566;-69
2023/01/16 05:40:05;;;;;;;127.70;40.55;;;;;;;;;;5001770;28;20124;-69
2023/01/16 05:42:32;;;;;;;139.07;38.47;;;;;;;;;;5000093;28;20106;-70
2023/01/16 05:44:59;;;;;;;144.27;36.22;;;;;;;;;;4998498;28;20054;-69
2023/01/16 05:47:25;;;;;;;145.63;33.88;;;;;;;;;;5002196;28;20056;-69
2023/01/16 05:49:52;;;;;;;121.88;33.58;;;;;;;;;;4992602;28;20045;-70
2023/01/16 05:52:19;;;;;;;122.82;34.60;;;;;;;;;;5007736;28;20038;-69
2023/01/16 05:54:45;;;;;;;106.95;31.92;;;;;;;;;;5008132;28;20041;-69
2023/01/16 05:57:12;;;;;;;173.48;35.85;;;;;;;;;;5006525;28;20109;-69
2023/01/16 05:59:41;;;;;;;158.20;33.28;;;;;;;;;;5004168;28;20147;-69
2023/01/16 06:02:08;;;;;;;114.75;32.30;;;;;;;;;;5008909;28;20037;-68
2023/01/16 06:04:34;;;;;;;168.55;34.03;;;;;;;;;;5008875;28;20033;-69
2023/01/16 06:07:01;;;;;;;168.07;31.17;;;;;;;;;;5006695;28;20042;-68
2023/01/16 06:09:27;;;;;;;174.35;34.95;;;;;;;;;;5008878;28;20105;-69
2023/01/16 06:11:54;;;;;;;109.93;31.08;;;;;;;;;;5009788;28;20495;-69
2023/01/16 06:14:21;;;;;;;119.95;31.67;;;;;;;;;;5002428;28;20042;-68
2023/01/16 06:16:47;;;;;;;141.57;31.42;;;;;;;;;;5001157;28;20925;-68
2023/01/16 06:19:15;;;;;;;152.90;32.00;;;;;;;;;;5007652;28;20193;-69
2023/01/16 06:21:42;;;;;;;102.28;33.28;;;;;;;;;;5007725;28;20042;-70
2023/01/16 06:24:09;;;;;;;145.85;33.55;;;;;;;;;;5007318;28;20125;-69
2023/01/16 06:26:35;;;;;;;179.43;34.67;;;;;;;;;;5006332;28;20045;-69
2023/01/16 06:29:02;;;;;;;135.52;33.40;;;;;;;;;;5005136;28;20038;-70
2023/01/16 06:31:30;;;;;;;213.63;36.80;;;;;;;;;;5006403;28;20026;-68
2023/01/16 06:33:57;;;;;;;160.02;34.30;;;;;;;;;;5021556;28;20045;-68
2023/01/16 06:36:23;;;;;;;125.95;34.35;;;;;;;;;;5005586;28;20461;-68
2023/01/16 06:38:50;;;;;;;143.85;34.25;;;;;;;;;;5001913;28;20901;-68
2023/01/16 06:41:16;;;;;;;166.32;35.88;;;;;;;;;;4998786;28;20112;-68
2023/01/16 06:43:43;;;;;;;140.82;34.67;;;;;;;;;;4995660;28;20045;-68
2023/01/16 06:46:10;;;;;;;194.45;35.72;;;;;;;;;;4995630;28;20112;-68
2023/01/16 06:48:36;;;;;;;120.63;33.20;;;;;;;;;;4995031;28;20379;-68
2023/01/16 06:51:03;;;;;;;121.03;33.90;;;;;;;;;;4994604;28;20034;-69
2023/01/16 06:53:30;;;;;;;115.13;34.42;;;;;;;;;;4994616;28;20056;-68
2023/01/16 06:55:56;;;;;;;87.60;29.05;;;;;;;;;;4995994;28;20474;-68
2023/01/16 06:58:23;;;;;;;114.85;31.10;;;;;;;;;;4995040;28;20060;-68
2023/01/16 07:00:50;;;;;;;100.13;30.20;;;;;;;;;;4996118;28;20574;-69
2023/01/16 07:03:18;;;;;;;189.77;32.95;;;;;;;;;;5007672;28;20045;-68
2023/01/16 07:05:45;;;;;;;169.70;33.90;;;;;;;;;;5011027;28;20078;-68
2023/01/16 07:08:12;;;;;;;166.07;31.88;;;;;;;;;;5005811;28;20394;-68
2023/01/16 07:10:39;;;;;;;133.27;30.48;;;;;;;;;;5000077;28;20049;-67
2023/01/16 07:13:05;;;;;;;189.80;31.48;;;;;;;;;;4998568;28;20146;-68
2023/01/16 07:23:51;;;;;;;139.27;30.17;;;;;;;;;;5001504;28;20050;-67
2023/01/16 07:26:19;;;;;;;145.23;28.88;;;;;;;;;;5016254;28;20048;-68
2023/01/16 07:28:46;;;;;;;155.38;27.45;;;;;;;;;;4997655;28;20042;-68
2023/01/16 07:31:13;;;;;;;282.63;33.70;;;;;;;;;;4997744;28;20485;-68
2023/01/16 07:33:40;;;;;;;245.15;31.42;;;;;;;;;;4996471;28;20945;-69
2023/01/16 07:36:06;;;;;;;168.32;29.35;;;;;;;;;;4999486;28;20783;-68
2023/01/16 07:38:33;;;;;;;201.50;28.45;;;;;;;;;;4997252;28;21795;-69
2023/01/16 07:41:00;;;;;;;179.93;27.38;;;;;;;;;;5011839;28;20045;-69
2023/01/16 07:43:26;;;;;;;142.55;27.75;;;;;;;;;;4996151;28;20117;-69
2023/01/16 07:45:53;;;;;;;130.07;26.95;;;;;;;;;;4995489;28;20060;-70
2023/01/16 07:48:21;;;;;;;152.57;28.40;;;;;;;;;;4990775;28;20065;-70
2023/01/16 07:50:54;;;;;;;125.00;26.30;;;;;;;;;;5002284;28;20037;-70
2023/01/16 07:53:22;;;;;;;164.43;28.17;;;;;;;;;;5000722;28;20038;-70
2023/01/16 07:55:52;;;;;;;148.80;29.20;;;;;;;;;;4998746;28;20145;-69
2023/01/16 07:58:20;;;;;;;105.85;26.02;;;;;;;;;;4993502;28;20038;-70
2023/01/16 08:00:47;;;;;;;153.50;27.48;;;;;;;;;;5013136;28;20470;-69
2023/01/16 08:03:14;;;;;;;152.00;27.73;;;;;;;;;;4998949;28;21765;-69
2023/01/16 08:05:43;;;;;;;157.85;28.45;;;;;;;;;;5014376;28;20461;-70
2023/01/16 08:08:10;;;;;;;167.55;29.73;;;;;;;;;;4999566;28;20038;-70
2023/01/16 08:10:37;;;;;;;122.97;26.88;;;;;;;;;;4998698;28;20077;-70
2023/01/16 08:13:03;;;;;;;193.57;30.33;;;;;;;;;;4997892;28;20145;-69
2023/01/16 08:15:30;;;;;;;154.07;30.95;;;;;;;;;;4998899;28;20045;-70
2023/01/16 08:17:57;;;;;;;127.00;29.63;;;;;;;;;;4998831;28;20145;-70
2023/01/16 08:20:26;;;;;;;138.00;29.73;;;;;;;;;;4999218;28;20118;-69
2023/01/16 08:22:55;;;;;;;205.82;33.88;;;;;;;;;;4998257;28;20398;-69
2023/01/16 08:25:22;;;;;;;221.15;34.28;;;;;;;;;;4997867;28;20057;-70
2023/01/16 08:27:49;;;;;;;175.95;33.33;;;;;;;;;;5006922;28;20041;-70
2023/01/16 08:30:16;;;;;;;168.82;30.42;;;;;;;;;;4999606;28;20063;-70
2023/01/16 08:32:43;;;;;;;195.48;32.30;;;;;;;;;;5012177;28;20044;-70
2023/01/16 08:35:10;;;;;;;225.65;33.72;;;;;;;;;;4999113;28;20061;-70
2023/01/16 08:37:37;;;;;;;126.68;31.42;;;;;;;;;;4997584;28;20060;-70
2023/01/16 08:40:04;;;;;;;192.77;33.08;;;;;;;;;;5013855;28;20049;-70
2023/01/16 08:53:33;;;;;;;194.90;30.42;;;;;;;;;;4996412;28;20159;-70
2023/01/16 08:56:00;;;;;;;147.32;28.85;;;;;;;;;;4997894;28;20863;-70
2023/01/16 08:58:27;;;;;;;159.25;27.00;;;;;;;;;;4997382;28;20101;-69
2023/01/16 09:00:53;;;;;;;116.40;28.20;;;;;;;;;;5011146;28;20585;-70
2023/01/16 09:03:20;;;;;;;171.88;30.35;;;;;;;;;;4998591;28;20052;-70
2023/01/16 09:05:46;;;;;;;126.00;29.15;;;;;;;;;;4998775;28;20430;-70
2023/01/16 09:08:13;;;;;;;185.63;33.10;;;;;;;;;;4999436;28;20042;-70
2023/01/16 09:13:48;;;;;;;167.15;32.65;;;;;;;;;;4996473;28;20155;-70
2023/01/16 09:16:11;;;;;;;129.82;30.83;;;;;;;;;;4999210;28;20064;-70
2023/01/16 09:18:38;;;;;;;145.32;29.13;;;;;;;;;;4997539;28;20069;-70
2023/01/16 09:21:04;;;;;;;149.90;31.58;;;;;;;;;;4996360;28;20088;-70
2023/01/16 09:23:31;;;;;;;141.13;27.88;;;;;;;;;;4997201;28;20046;-70
2023/01/16 09:25:58;;;;;;;146.45;32.22;;;;;;;;;;4997707;28;20131;-70
2023/01/16 09:28:24;;;;;;;125.32;28.45;;;;;;;;;;5012380;28;20046;-70
2023/01/16 09:30:54;;;;;;;151.40;30.55;;;;;;;;;;4996120;28;20145;-68
2023/01/16 09:33:20;;;;;;;195.70;31.40;;;;;;;;;;5012136;28;20534;-68
2023/01/16 09:35:47;;;;;;;174.20;30.48;;;;;;;;;;4997311;28;20065;-69
2023/01/16 09:38:13;;;;;;;133.55;27.85;;;;;;;;;;4997258;28;20066;-69
2023/01/16 09:40:49;;;;;;;189.63;32.40;;;;;;;;;;4995375;28;20045;-68
2023/01/16 09:43:38;;;;;;;141.07;30.02;;;;;;;;;;4998673;28;20061;-70
2023/01/16 09:46:05;;;;;;;144.90;28.50;;;;;;;;;;4996021;28;20490;-69
2023/01/16 09:48:33;;;;;;;113.63;28.58;;;;;;;;;;5001621;28;20075;-69
2023/01/16 09:51:12;;;;;;;110.93;29.17;;;;;;;;;;4995542;28;20053;-68
2023/01/16 09:59:23;;;;;;;148.98;31.33;;;;;;;;;;4997802;28;20060;-68
2023/01/16 10:01:54;;;;;;;130.52;28.75;;;;;;;;;;5011572;28;20044;-69
2023/01/16 10:04:22;;;;;;;88.75;27.67;;;;;;;;;;4996822;28;20061;-70
2023/01/16 10:07:07;;;;;;;113.25;28.35;;;;;;;;;;4996446;28;20040;-68
2023/01/16 10:09:41;;;;;;;113.10;25.92;;;;;;;;;;4995996;28;20033;-69
2023/01/16 10:12:11;;;;;;;146.70;29.38;;;;;;;;;;4986844;28;20061;-69
2023/01/16 10:14:53;;;;;;;115.28;28.67;;;;;;;;;;4996986;28;20046;-69
2023/01/16 10:17:20;;;;;;;107.03;27.20;;;;;;;;;;5011834;28;20042;-70
2023/01/16 10:20:04;;;;;;;180.02;29.90;;;;;;;;;;4996802;28;20084;-68
2023/01/16 10:22:35;;;;;;;202.75;29.98;;;;;;;;;;4995395;28;20455;-70
2023/01/16 10:25:02;;;;;;;152.70;26.73;;;;;;;;;;4997851;28;20053;-69
2023/01/16 10:27:50;;;;;;;92.68;25.92;;;;;;;;;;5010606;28;20053;-69
2023/01/16 10:30:22;;;;;;;168.52;28.00;;;;;;;;;;4997338;28;20368;-70
2023/01/16 10:32:53;;;;;;;181.60;29.02;;;;;;;;;;5011109;28;20118;-69
2023/01/16 10:35:28;;;;;;;170.32;30.23;;;;;;;;;;4997455;28;20046;-69
2023/01/16 10:37:56;;;;;;;135.75;27.77;;;;;;;;;;4995760;28;20113;-69
2023/01/16 10:40:27;;;;;;;98.13;26.92;;;;;;;;;;4995469;28;20061;-70
2023/01/16 10:51:20;;;;;;;174.10;25.50;;;;;;;;;;4995080;28;20048;-69
2023/01/16 10:53:46;;;;;;;110.15;25.20;;;;;;;;;;4996756;28;20096;-69
2023/01/16 10:56:13;;;;;;;130.07;24.63;;;;;;;;;;4996320;28;20037;-69
2023/01/16 10:58:40;;;;;;;78.43;23.42;;;;;;;;;;4996238;28;20069;-69
2023/01/16 11:01:13;;;;;;;121.95;25.85;;;;;;;;;;5010759;28;20495;-70
2023/01/16 11:03:41;;;;;;;110.15;22.00;;;;;;;;;;4997281;28;20049;-70
2023/01/16 11:06:10;;;;;;;104.65;23.20;;;;;;;;;;4996948;28;20154;-69
2023/01/16 11:08:37;;;;;;;94.28;21.55;;;;;;;;;;5010727;28;20137;-70
2023/01/16 11:11:05;;;;;;;162.05;24.38;;;;;;;;;;5011348;28;20045;-70
2023/01/16 11:19:42;;;;;;;145.82;25.10;;;;;;;;;;4998275;28;20152;-72
2023/01/16 11:22:22;;;;;;;133.10;24.42;;;;;;;;;;5001485;28;20049;-69
2023/01/16 11:24:49;;;;;;;76.95;22.90;;;;;;;;;;5009910;28;20069;-69
2023/01/16 11:27:19;;;;;;;61.03;23.25;;;;;;;;;;5018751;28;20102;-70
2023/01/16 11:29:45;;;;;;;68.90;23.83;;;;;;;;;;5005994;28;20045;-69
2023/01/16 11:32:14;;;;;;;90.65;23.90;;;;;;;;;;4998712;28;20228;-69
2023/01/16 11:34:46;;;;;;;147.25;27.90;;;;;;;;;;4993241;28;20042;-69
2023/01/16 11:37:14;;;;;;;127.90;28.63;;;;;;;;;;4994540;28;20073;-70
2023/01/16 11:39:41;;;;;;;105.20;26.10;;;;;;;;;;4995406;28;20053;-68
2023/01/16 11:47:44;;;;;;;109.75;27.25;;;;;;;;;;5010099;28;20057;-69
2023/01/16 11:50:26;;;;;;;91.45;24.77;;;;;;;;;;5022275;28;20057;-69
2023/01/16 11:52:52;;;;;;;74.10;23.13;;;;;;;;;;5021394;28;20049;-69
2023/01/16 11:55:19;;;;;;;57.00;23.88;;;;;;;;;;5017157;28;20045;-69
2023/01/16 11:57:46;;;;;;;65.55;26.27;;;;;;;;;;5002573;28;20490;-69
2023/01/16 12:00:20;;;;;;;61.85;23.92;;;;;;;;;;5000348;28;20113;-69
2023/01/16 12:03:05;;;;;;;78.32;23.73;;;;;;;;;;4999540;28;20458;-69
2023/01/16 12:05:54;;;;;;;78.20;25.55;;;;;;;;;;5015676;28;20699;-69
2023/01/16 12:08:39;;;;;;;80.03;24.23;;;;;;;;;;4998281;28;20064;-69
2023/01/16 12:11:06;;;;;;;113.90;26.13;;;;;;;;;;5003184;28;20125;-68
2023/01/16 12:16:49;;;;;;;95.43;25.45;;;;;;;;;;5000330;28;20036;-70
2023/01/16 12:19:35;;;;;;;83.85;25.33;;;;;;;;;;4975496;28;20538;-69
2023/01/16 12:22:01;;;;;;;91.63;26.02;;;;;;;;;;5014896;28;20042;-69
2023/01/16 12:24:34;;;;;;;73.38;23.52;;;;;;;;;;4998735;28;20041;-70
2023/01/16 12:27:19;;;;;;;65.90;23.48;;;;;;;;;;5012838;28;21612;-69
2023/01/16 12:29:46;;;;;;;81.63;24.30;;;;;;;;;;4997884;28;20176;-70
2023/01/16 12:32:35;;;;;;;60.83;24.85;;;;;;;;;;4998842;28;20042;-70
2023/01/16 12:35:02;;;;;;;73.15;23.55;;;;;;;;;;4971624;28;20165;-70
2023/01/16 12:37:41;;;;;;;123.47;28.30;;;;;;;;;;4998060;28;20042;-71
2023/01/16 12:40:07;;;;;;;122.53;27.25;;;;;;;;;;4997676;28;20081;-70
2023/01/16 12:45:34;;;;;;;170.27;28.58;;;;;;;;;;4998699;28;20069;-70
2023/01/16 12:48:12;;;;;;;145.33;24.03;;;;;;;;;;5011519;28;20085;-69
2023/01/16 12:50:45;;;;;;;138.55;27.77;;;;;;;;;;4997436;28;20537;-69
2023/01/16 12:53:43;;;;;;;154.50;27.70;;;;;;;;;;4997368;28;20038;-69
2023/01/16 12:56:19;;;;;;;117.53;27.73;;;;;;;;;;4998713;28;20042;-69
2023/01/16 12:58:52;;;;;;;77.45;26.33;;;;;;;;;;5001957;28;20221;-70
2023/01/16 13:01:44;;;;;;;67.18;26.20;;;;;;;;;;4999145;28;20445;-68
2023/01/16 13:04:16;;;;;;;78.55;26.05;;;;;;;;;;4994929;28;20057;-68
2023/01/16 13:06:51;;;;;;;128.20;27.88;;;;;;;;;;4995986;28;20041;-66
2023/01/16 13:09:24;;;;;;;130.02;29.20;;;;;;;;;;4996878;28;20441;-68
2023/01/16 13:14:48;;;;;;;72.47;25.00;;;;;;;;;;4996475;28;20069;-68
2023/01/16 13:17:18;;;;;;;67.40;26.60;;;;;;;;;;4996254;28;20231;-69
2023/01/16 13:19:45;;;;;;;87.30;26.70;;;;;;;;;;4998315;28;20042;-70
2023/01/16 13:22:22;;;;;;;170.60;29.80;;;;;;;;;;4989526;28;20833;-70
2023/01/16 13:25:13;;;;;;;96.78;28.23;;;;;;;;;;4996122;28;20137;-70
2023/01/16 13:27:45;;;;;;;120.28;26.85;;;;;;;;;;4996707;28;20092;-70
2023/01/16 13:30:17;;;;;;;107.65;26.65;;;;;;;;;;4995770;28;20219;-69
2023/01/16 13:32:48;;;;;;;81.88;24.98;;;;;;;;;;4996103;28;20089;-69
2023/01/16 13:35:20;;;;;;;81.95;25.30;;;;;;;;;;4998421;28;20048;-70
2023/01/16 13:37:51;;;;;;;68.43;25.00;;;;;;;;;;5004038;28;20069;-70
2023/01/16 13:40:28;;;;;;;81.70;25.73;;;;;;;;;;4999402;28;20061;-68
2023/01/16 13:46:01;;;;;;;58.70;24.67;;;;;;;;;;4997506;28;20057;-69
2023/01/16 13:48:36;;;;;;;100.72;26.40;;;;;;;;;;4996317;28;20169;-70
2023/01/16 13:51:04;;;;;;;145.95;27.08;;;;;;;;;;4995047;28;20117;-70
2023/01/16 13:53:32;;;;;;;104.43;25.50;;;;;;;;;;4996951;28;20073;-69
2023/01/16 13:56:20;;;;;;;91.63;24.75;;;;;;;;;;4995664;28;20037;-71
2023/01/16 13:58:49;;;;;;;177.85;28.60;;;;;;;;;;4995565;28;20042;-70
2023/01/16 14:01:34;;;;;;;103.82;25.27;;;;;;;;;;4996093;28;20117;-69
2023/01/16 14:04:25;;;;;;;67.28;24.42;;;;;;;;;;5009252;28;20054;-67
2023/01/16 14:10:07;;;;;;;95.55;23.30;;;;;;;;;;4994707;28;20072;-68
2023/01/16 14:12:54;;;;;;;161.20;29.42;;;;;;;;;;4994825;28;20033;-68
2023/01/16 14:18:18;;;;;;;158.55;27.33;;;;;;;;;;4997038;28;20056;-67
2023/01/16 14:20:50;;;;;;;72.47;22.90;;;;;;;;;;4995258;28;20034;-68
2023/01/16 14:26:20;;;;;;;62.40;24.63;;;;;;;;;;4997129;28;20053;-68
2023/01/16 14:28:50;;;;;;;147.70;27.80;;;;;;;;;;4995084;28;20042;-68
2023/01/16 14:31:25;;;;;;;89.90;25.92;;;;;;;;;;5010403;28;20043;-68
2023/01/16 14:33:53;;;;;;;121.80;24.88;;;;;;;;;;4995123;28;20104;-69
2023/01/16 14:36:22;;;;;;;76.65;24.98;;;;;;;;;;4995268;28;20574;-69
2023/01/16 14:38:49;;;;;;;73.90;23.75;;;;;;;;;;4995868;28;20050;-69
2023/01/16 14:56:05;;;;;;;81.40;26.17;;;;;;;;;;4996320;28;20080;-67
2023/01/16 14:58:31;;;;;;;93.85;22.45;;;;;;;;;;4995346;28;20757;-68
2023/01/16 15:02:18;;;;;;;87.72;23.80;;;;;;;;;;5004203;28;20038;-69
2023/01/16 15:03:46;;;;;;;95.60;25.88;;;;;;;;;;5001711;28;20502;-69
2023/01/16 15:06:13;;;;;;;84.28;25.95;;;;;;;;;;4998707;28;20103;-69
2023/01/16 15:08:41;;;;;;;93.75;26.23;;;;;;;;;;5012929;28;20144;-69
2023/01/16 15:11:46;;;;;;;83.38;24.58;;;;;;;;;;5000893;28;20045;-68
2023/01/16 15:14:26;;;;;;;70.72;22.83;;;;;;;;;;4977986;28;20132;-68
2023/01/16 15:23:05;;;;;;;89.13;25.08;;;;;;;;;;5000630;28;20398;-69
2023/01/16 15:25:34;;;;;;;97.57;25.48;;;;;;;;;;4999860;28;20046;-69
2023/01/16 15:28:04;;;;;;;138.75;24.80;;;;;;;;;;5001502;28;20045;-69
2023/01/16 15:30:31;;;;;;;109.35;24.10;;;;;;;;;;4998644;28;20052;-68
2023/01/16 15:36:02;;;;;;;119.25;24.77;;;;;;;;;;4978201;28;20078;-68
2023/01/16 15:38:35;;;;;;;67.47;24.90;;;;;;;;;;4994470;28;20092;-69
2023/01/16 15:41:03;;;;;;;66.20;19.80;;;;;;;;;;5014713;28;20558;-69
2023/01/16 15:46:48;;;;;;;105.82;26.42;;;;;;;;;;5000785;28;20056;-69
2023/01/16 15:49:21;;;;;;;70.22;25.38;;;;;;;;;;4998340;28;20041;-69
2023/01/16 15:51:52;;;;;;;94.45;26.48;;;;;;;;;;4999266;28;20037;-68
2023/01/16 15:54:19;;;;;;;68.82;26.77;;;;;;;;;;4998570;28;20058;-70
2023/01/16 15:56:47;;;;;;;85.47;28.27;;;;;;;;;;5000927;28;20044;-70
2023/01/16 15:59:21;;;;;;;78.00;26.13;;;;;;;;;;5000910;28;20160;-68
2023/01/16 16:01:48;;;;;;;64.15;24.58;;;;;;;;;;4998385;28;20042;-68
2023/01/16 16:04:15;;;;;;;81.07;25.50;;;;;;;;;;5000107;28;20048;-68
2023/01/16 16:06:42;;;;;;;54.08;25.67;;;;;;;;;;4999979;28;20068;-70